sensor_id;sensor_type;location;lat;lon;timestamp;P1;durP1;ratioP1;P2;durP2;ratioP2
33347;SDS011;19707;51.158;17.124;2022-07-19T00:00:13;8.45;;;4.90;;
33347;SDS011;19707;51.158;17.124;2022-07-19T00:03:20;9.03;;;5.03;;
33347;SDS011;19707;51.158;17.124;2022-07-19T00:06:23;7.22;;;4.60;;
33347;SDS011;19707;51.158;17.124;2022-07-19T00:09:25;14.40;;;5.37;;
33347;SDS011;19707;51.158;17.124;2022-07-19T00:12:29;8.93;;;5.58;;
33347;SDS011;19707;51.158;17.124;2022-07-19T00:15:31;7.42;;;5.20;;
33347;SDS011;19707;51.158;17.124;2022-07-19T00:18:33;9.23;;;4.78;;
33347;SDS011;19707;51.158;17.124;2022-07-19T00:21:36;13.25;;;6.08;;
33347;SDS011;19707;51.158;17.124;2022-07-19T00:24:38;9.18;;;5.55;;
33347;SDS011;19707;51.158;17.124;2022-07-19T00:27:39;14.73;;;6.28;;
33347;SDS011;19707;51.158;17.124;2022-07-19T00:30:43;14.85;;;6.72;;
33347;SDS011;19707;51.158;17.124;2022-07-19T00:33:45;9.78;;;6.20;;
33347;SDS011;19707;51.158;17.124;2022-07-19T00:36:48;9.08;;;5.75;;
33347;SDS011;19707;51.158;17.124;2022-07-19T00:39:50;13.05;;;6.25;;
33347;SDS011;19707;51.158;17.124;2022-07-19T00:42:53;9.45;;;6.35;;
33347;SDS011;19707;51.158;17.124;2022-07-19T00:45:59;11.00;;;5.65;;
33347;SDS011;19707;51.158;17.124;2022-07-19T00:49:01;9.15;;;5.72;;
33347;SDS011;19707;51.158;17.124;2022-07-19T00:52:04;14.35;;;6.58;;
33347;SDS011;19707;51.158;17.124;2022-07-19T00:55:08;12.58;;;6.05;;
33347;SDS011;19707;51.158;17.124;2022-07-19T00:58:11;12.55;;;6.53;;
33347;SDS011;19707;51.158;17.124;2022-07-19T01:01:15;10.95;;;5.40;;
33347;SDS011;19707;51.158;17.124;2022-07-19T01:04:16;9.83;;;5.97;;
33347;SDS011;19707;51.158;17.124;2022-07-19T01:07:19;8.95;;;6.00;;
33347;SDS011;19707;51.158;17.124;2022-07-19T01:10:21;9.30;;;6.05;;
33347;SDS011;19707;51.158;17.124;2022-07-19T01:13:23;14.58;;;6.45;;
33347;SDS011;19707;51.158;17.124;2022-07-19T01:16:25;9.93;;;6.15;;
33347;SDS011;19707;51.158;17.124;2022-07-19T01:19:27;12.53;;;5.50;;
33347;SDS011;19707;51.158;17.124;2022-07-19T01:22:29;9.88;;;5.95;;
33347;SDS011;19707;51.158;17.124;2022-07-19T01:25:32;10.98;;;6.10;;
33347;SDS011;19707;51.158;17.124;2022-07-19T01:28:36;10.45;;;6.20;;
33347;SDS011;19707;51.158;17.124;2022-07-19T01:31:38;11.57;;;6.25;;
33347;SDS011;19707;51.158;17.124;2022-07-19T01:34:39;14.53;;;6.28;;
33347;SDS011;19707;51.158;17.124;2022-07-19T01:37:41;9.95;;;6.25;;
33347;SDS011;19707;51.158;17.124;2022-07-19T01:40:42;10.68;;;6.10;;
33347;SDS011;19707;51.158;17.124;2022-07-19T01:43:44;9.93;;;5.92;;
33347;SDS011;19707;51.158;17.124;2022-07-19T01:46:45;8.80;;;5.85;;
33347;SDS011;19707;51.158;17.124;2022-07-19T01:49:47;8.40;;;5.83;;
33347;SDS011;19707;51.158;17.124;2022-07-19T01:52:49;11.65;;;5.70;;
33347;SDS011;19707;51.158;17.124;2022-07-19T01:55:50;8.70;;;6.08;;
33347;SDS011;19707;51.158;17.124;2022-07-19T01:58:53;9.90;;;7.22;;
33347;SDS011;19707;51.158;17.124;2022-07-19T02:01:54;11.53;;;6.35;;
33347;SDS011;19707;51.158;17.124;2022-07-19T02:04:56;8.65;;;5.85;;
33347;SDS011;19707;51.158;17.124;2022-07-19T02:07:57;16.35;;;6.25;;
33347;SDS011;19707;51.158;17.124;2022-07-19T02:10:58;10.85;;;5.60;;
33347;SDS011;19707;51.158;17.124;2022-07-19T02:13:59;7.40;;;5.33;;
33347;SDS011;19707;51.158;17.124;2022-07-19T02:17:02;13.55;;;6.47;;
33347;SDS011;19707;51.158;17.124;2022-07-19T02:20:04;12.47;;;6.10;;
33347;SDS011;19707;51.158;17.124;2022-07-19T02:23:07;11.48;;;6.05;;
33347;SDS011;19707;51.158;17.124;2022-07-19T02:26:08;9.20;;;5.30;;
33347;SDS011;19707;51.158;17.124;2022-07-19T02:29:10;11.40;;;5.92;;
33347;SDS011;19707;51.158;17.124;2022-07-19T02:32:11;11.05;;;6.33;;
33347;SDS011;19707;51.158;17.124;2022-07-19T02:35:12;8.60;;;5.37;;
33347;SDS011;19707;51.158;17.124;2022-07-19T02:38:14;8.75;;;5.67;;
33347;SDS011;19707;51.158;17.124;2022-07-19T02:41:15;8.03;;;6.17;;
33347;SDS011;19707;51.158;17.124;2022-07-19T02:44:17;11.33;;;5.87;;
33347;SDS011;19707;51.158;17.124;2022-07-19T02:47:18;11.73;;;5.90;;
33347;SDS011;19707;51.158;17.124;2022-07-19T02:50:20;10.68;;;6.08;;
33347;SDS011;19707;51.158;17.124;2022-07-19T02:53:22;13.05;;;5.65;;
33347;SDS011;19707;51.158;17.124;2022-07-19T02:56:24;10.75;;;5.83;;
33347;SDS011;19707;51.158;17.124;2022-07-19T02:59:26;9.40;;;5.62;;
33347;SDS011;19707;51.158;17.124;2022-07-19T03:02:27;11.88;;;6.12;;
33347;SDS011;19707;51.158;17.124;2022-07-19T03:05:28;8.88;;;5.90;;
33347;SDS011;19707;51.158;17.124;2022-07-19T03:08:30;12.95;;;5.67;;
33347;SDS011;19707;51.158;17.124;2022-07-19T03:11:31;8.90;;;6.40;;
33347;SDS011;19707;51.158;17.124;2022-07-19T03:14:32;8.80;;;6.12;;
33347;SDS011;19707;51.158;17.124;2022-07-19T03:17:34;11.08;;;6.35;;
33347;SDS011;19707;51.158;17.124;2022-07-19T03:20:35;10.98;;;6.20;;
33347;SDS011;19707;51.158;17.124;2022-07-19T03:23:36;11.88;;;6.08;;
33347;SDS011;19707;51.158;17.124;2022-07-19T03:26:38;8.85;;;5.97;;
33347;SDS011;19707;51.158;17.124;2022-07-19T03:29:39;12.03;;;5.83;;
33347;SDS011;19707;51.158;17.124;2022-07-19T03:32:40;11.12;;;5.90;;
33347;SDS011;19707;51.158;17.124;2022-07-19T03:35:42;13.80;;;5.80;;
33347;SDS011;19707;51.158;17.124;2022-07-19T03:38:44;10.78;;;6.70;;
33347;SDS011;19707;51.158;17.124;2022-07-19T03:41:45;10.72;;;6.20;;
33347;SDS011;19707;51.158;17.124;2022-07-19T03:44:47;9.00;;;5.90;;
33347;SDS011;19707;51.158;17.124;2022-07-19T03:47:48;12.45;;;5.80;;
33347;SDS011;19707;51.158;17.124;2022-07-19T03:50:50;10.03;;;5.65;;
33347;SDS011;19707;51.158;17.124;2022-07-19T03:53:51;11.05;;;6.00;;
33347;SDS011;19707;51.158;17.124;2022-07-19T03:56:52;10.63;;;6.22;;
33347;SDS011;19707;51.158;17.124;2022-07-19T03:59:55;11.18;;;6.67;;
33347;SDS011;19707;51.158;17.124;2022-07-19T04:02:57;10.98;;;6.20;;
33347;SDS011;19707;51.158;17.124;2022-07-19T04:05:59;10.58;;;5.95;;
33347;SDS011;19707;51.158;17.124;2022-07-19T04:09:00;9.73;;;5.95;;
33347;SDS011;19707;51.158;17.124;2022-07-19T04:12:01;13.22;;;6.90;;
33347;SDS011;19707;51.158;17.124;2022-07-19T04:15:04;10.30;;;6.50;;
33347;SDS011;19707;51.158;17.124;2022-07-19T04:18:07;9.63;;;5.90;;
33347;SDS011;19707;51.158;17.124;2022-07-19T04:21:08;11.28;;;6.75;;
33347;SDS011;19707;51.158;17.124;2022-07-19T04:24:10;9.15;;;6.03;;
33347;SDS011;19707;51.158;17.124;2022-07-19T04:27:11;10.18;;;6.55;;
33347;SDS011;19707;51.158;17.124;2022-07-19T04:30:12;12.50;;;6.10;;
33347;SDS011;19707;51.158;17.124;2022-07-19T04:33:14;14.35;;;6.67;;
33347;SDS011;19707;51.158;17.124;2022-07-19T04:36:16;12.78;;;6.65;;
33347;SDS011;19707;51.158;17.124;2022-07-19T04:39:17;11.90;;;7.12;;
33347;SDS011;19707;51.158;17.124;2022-07-19T04:42:19;13.50;;;6.72;;
33347;SDS011;19707;51.158;17.124;2022-07-19T04:45:20;11.00;;;6.75;;
33347;SDS011;19707;51.158;17.124;2022-07-19T04:48:21;14.58;;;6.55;;
33347;SDS011;19707;51.158;17.124;2022-07-19T04:51:23;14.98;;;5.92;;
33347;SDS011;19707;51.158;17.124;2022-07-19T04:54:24;13.13;;;6.42;;
33347;SDS011;19707;51.158;17.124;2022-07-19T04:57:26;18.95;;;6.78;;
33347;SDS011;19707;51.158;17.124;2022-07-19T05:00:27;13.22;;;7.15;;
33347;SDS011;19707;51.158;17.124;2022-07-19T05:03:29;16.42;;;6.55;;
33347;SDS011;19707;51.158;17.124;2022-07-19T05:06:31;20.12;;;7.78;;
33347;SDS011;19707;51.158;17.124;2022-07-19T05:09:32;25.27;;;8.05;;
33347;SDS011;19707;51.158;17.124;2022-07-19T05:12:34;13.65;;;6.60;;
33347;SDS011;19707;51.158;17.124;2022-07-19T05:15:36;14.05;;;5.90;;
33347;SDS011;19707;51.158;17.124;2022-07-19T05:18:37;12.40;;;5.92;;
33347;SDS011;19707;51.158;17.124;2022-07-19T05:21:39;14.47;;;7.00;;
33347;SDS011;19707;51.158;17.124;2022-07-19T05:24:43;11.70;;;6.30;;
33347;SDS011;19707;51.158;17.124;2022-07-19T05:27:45;13.83;;;6.17;;
33347;SDS011;19707;51.158;17.124;2022-07-19T05:30:47;11.15;;;6.20;;
33347;SDS011;19707;51.158;17.124;2022-07-19T05:33:49;11.50;;;5.72;;
33347;SDS011;19707;51.158;17.124;2022-07-19T05:36:52;14.47;;;6.22;;
33347;SDS011;19707;51.158;17.124;2022-07-19T05:39:54;9.80;;;5.25;;
33347;SDS011;19707;51.158;17.124;2022-07-19T05:42:56;15.72;;;6.05;;
33347;SDS011;19707;51.158;17.124;2022-07-19T05:45:58;9.70;;;5.12;;
33347;SDS011;19707;51.158;17.124;2022-07-19T05:49:00;8.70;;;4.80;;
33347;SDS011;19707;51.158;17.124;2022-07-19T05:52:02;10.18;;;5.08;;
33347;SDS011;19707;51.158;17.124;2022-07-19T05:55:05;10.30;;;5.15;;
33347;SDS011;19707;51.158;17.124;2022-07-19T05:58:08;13.55;;;5.67;;
33347;SDS011;19707;51.158;17.124;2022-07-19T06:01:09;12.28;;;5.53;;
33347;SDS011;19707;51.158;17.124;2022-07-19T06:04:20;9.15;;;5.22;;
33347;SDS011;19707;51.158;17.124;2022-07-19T06:07:21;13.05;;;5.22;;
33347;SDS011;19707;51.158;17.124;2022-07-19T06:10:23;13.15;;;4.65;;
33347;SDS011;19707;51.158;17.124;2022-07-19T06:13:24;11.12;;;5.05;;
33347;SDS011;19707;51.158;17.124;2022-07-19T06:16:26;10.50;;;4.53;;
33347;SDS011;19707;51.158;17.124;2022-07-19T06:19:28;10.43;;;4.53;;
33347;SDS011;19707;51.158;17.124;2022-07-19T06:22:30;7.95;;;4.00;;
33347;SDS011;19707;51.158;17.124;2022-07-19T06:25:32;7.47;;;4.40;;
33347;SDS011;19707;51.158;17.124;2022-07-19T06:28:34;14.73;;;5.28;;
33347;SDS011;19707;51.158;17.124;2022-07-19T06:31:35;9.78;;;4.75;;
33347;SDS011;19707;51.158;17.124;2022-07-19T06:34:36;8.85;;;4.53;;
33347;SDS011;19707;51.158;17.124;2022-07-19T06:37:38;17.23;;;5.53;;
33347;SDS011;19707;51.158;17.124;2022-07-19T06:40:39;9.20;;;4.33;;
33347;SDS011;19707;51.158;17.124;2022-07-19T06:43:41;13.40;;;4.20;;
33347;SDS011;19707;51.158;17.124;2022-07-19T06:46:43;14.58;;;4.60;;
33347;SDS011;19707;51.158;17.124;2022-07-19T06:49:45;13.98;;;5.03;;
33347;SDS011;19707;51.158;17.124;2022-07-19T06:52:46;10.13;;;4.85;;
33347;SDS011;19707;51.158;17.124;2022-07-19T06:55:47;8.70;;;4.17;;
33347;SDS011;19707;51.158;17.124;2022-07-19T06:58:49;10.90;;;4.35;;
33347;SDS011;19707;51.158;17.124;2022-07-19T07:01:50;11.25;;;4.10;;
33347;SDS011;19707;51.158;17.124;2022-07-19T07:04:53;19.27;;;4.43;;
33347;SDS011;19707;51.158;17.124;2022-07-19T07:07:54;14.85;;;4.90;;
33347;SDS011;19707;51.158;17.124;2022-07-19T07:10:55;10.20;;;4.05;;
33347;SDS011;19707;51.158;17.124;2022-07-19T07:13:57;8.20;;;4.35;;
33347;SDS011;19707;51.158;17.124;2022-07-19T07:16:58;12.65;;;3.95;;
33347;SDS011;19707;51.158;17.124;2022-07-19T07:19:59;13.43;;;4.55;;
33347;SDS011;19707;51.158;17.124;2022-07-19T07:23:02;9.98;;;4.42;;
33347;SDS011;19707;51.158;17.124;2022-07-19T07:26:04;13.55;;;4.08;;
33347;SDS011;19707;51.158;17.124;2022-07-19T07:29:06;8.83;;;2.98;;
33347;SDS011;19707;51.158;17.124;2022-07-19T07:32:07;4.85;;;1.85;;
33347;SDS011;19707;51.158;17.124;2022-07-19T07:35:08;6.20;;;3.25;;
33347;SDS011;19707;51.158;17.124;2022-07-19T07:38:10;7.50;;;3.10;;
33347;SDS011;19707;51.158;17.124;2022-07-19T07:41:11;6.47;;;3.27;;
33347;SDS011;19707;51.158;17.124;2022-07-19T07:44:12;2.70;;;1.12;;
33347;SDS011;19707;51.158;17.124;2022-07-19T07:47:18;9.65;;;3.47;;
33347;SDS011;19707;51.158;17.124;2022-07-19T07:50:20;5.20;;;2.20;;
33347;SDS011;19707;51.158;17.124;2022-07-19T07:53:21;2.45;;;1.65;;
33347;SDS011;19707;51.158;17.124;2022-07-19T07:56:23;3.27;;;1.30;;
33347;SDS011;19707;51.158;17.124;2022-07-19T07:59:25;2.57;;;1.07;;
33347;SDS011;19707;51.158;17.124;2022-07-19T08:02:27;7.05;;;2.30;;
33347;SDS011;19707;51.158;17.124;2022-07-19T08:05:28;3.15;;;1.47;;
33347;SDS011;19707;51.158;17.124;2022-07-19T08:08:30;7.62;;;1.85;;
33347;SDS011;19707;51.158;17.124;2022-07-19T08:11:32;6.10;;;2.60;;
33347;SDS011;19707;51.158;17.124;2022-07-19T08:14:35;1.47;;;1.10;;
33347;SDS011;19707;51.158;17.124;2022-07-19T08:17:37;1.27;;;1.17;;
33347;SDS011;19707;51.158;17.124;2022-07-19T08:20:38;0.78;;;0.70;;
33347;SDS011;19707;51.158;17.124;2022-07-19T08:23:40;2.67;;;0.90;;
33347;SDS011;19707;51.158;17.124;2022-07-19T08:26:42;10.93;;;2.53;;
33347;SDS011;19707;51.158;17.124;2022-07-19T08:29:44;1.10;;;1.00;;
33347;SDS011;19707;51.158;17.124;2022-07-19T08:32:46;4.10;;;0.93;;
33347;SDS011;19707;51.158;17.124;2022-07-19T08:35:48;1.32;;;1.20;;
33347;SDS011;19707;51.158;17.124;2022-07-19T08:38:49;4.05;;;1.70;;
33347;SDS011;19707;51.158;17.124;2022-07-19T08:41:51;3.52;;;1.67;;
33347;SDS011;19707;51.158;17.124;2022-07-19T08:44:53;1.80;;;1.40;;
33347;SDS011;19707;51.158;17.124;2022-07-19T08:47:55;4.42;;;1.50;;
33347;SDS011;19707;51.158;17.124;2022-07-19T08:54:00;3.87;;;1.17;;
33347;SDS011;19707;51.158;17.124;2022-07-19T08:57:02;5.17;;;2.30;;
33347;SDS011;19707;51.158;17.124;2022-07-19T09:00:31;3.45;;;1.57;;
33347;SDS011;19707;51.158;17.124;2022-07-19T09:03:31;2.50;;;1.77;;
33347;SDS011;19707;51.158;17.124;2022-07-19T09:06:42;1.15;;;0.90;;
33347;SDS011;19707;51.158;17.124;2022-07-19T09:09:41;0.90;;;0.90;;
33347;SDS011;19707;51.158;17.124;2022-07-19T09:16:11;0.85;;;0.85;;
33347;SDS011;19707;51.158;17.124;2022-07-19T09:19:36;6.60;;;2.45;;
33347;SDS011;19707;51.158;17.124;2022-07-19T09:22:36;4.40;;;2.25;;
33347;SDS011;19707;51.158;17.124;2022-07-19T09:25:42;4.62;;;2.02;;
33347;SDS011;19707;51.158;17.124;2022-07-19T09:28:53;0.70;;;0.70;;
33347;SDS011;19707;51.158;17.124;2022-07-19T09:35:18;0.60;;;0.60;;
33347;SDS011;19707;51.158;17.124;2022-07-19T09:41:54;1.33;;;1.00;;
33347;SDS011;19707;51.158;17.124;2022-07-19T09:44:57;1.27;;;1.17;;
33347;SDS011;19707;51.158;17.124;2022-07-19T09:48:07;1.17;;;0.93;;
33347;SDS011;19707;51.158;17.124;2022-07-19T09:51:08;1.17;;;0.95;;
33347;SDS011;19707;51.158;17.124;2022-07-19T09:54:11;1.80;;;0.90;;
33347;SDS011;19707;51.158;17.124;2022-07-19T09:57:24;0.90;;;0.90;;
33347;SDS011;19707;51.158;17.124;2022-07-19T10:00:26;0.98;;;0.90;;
33347;SDS011;19707;51.158;17.124;2022-07-19T10:03:27;1.92;;;1.15;;
33347;SDS011;19707;51.158;17.124;2022-07-19T10:06:29;0.60;;;0.60;;
33347;SDS011;19707;51.158;17.124;2022-07-19T10:09:32;0.90;;;0.80;;
33347;SDS011;19707;51.158;17.124;2022-07-19T10:12:33;4.25;;;2.33;;
33347;SDS011;19707;51.158;17.124;2022-07-19T10:18:44;1.17;;;1.10;;
33347;SDS011;19707;51.158;17.124;2022-07-19T10:22:05;5.87;;;2.62;;
33347;SDS011;19707;51.158;17.124;2022-07-19T10:25:14;3.72;;;1.75;;
33347;SDS011;19707;51.158;17.124;2022-07-19T10:28:28;1.10;;;1.10;;
33347;SDS011;19707;51.158;17.124;2022-07-19T10:31:38;1.30;;;1.20;;
33347;SDS011;19707;51.158;17.124;2022-07-19T10:34:41;2.00;;;1.80;;
33347;SDS011;19707;51.158;17.124;2022-07-19T10:41:19;1.98;;;0.72;;
33347;SDS011;19707;51.158;17.124;2022-07-19T10:44:14;0.60;;;0.60;;
33347;SDS011;19707;51.158;17.124;2022-07-19T10:47:16;2.22;;;0.85;;
33347;SDS011;19707;51.158;17.124;2022-07-19T10:50:17;0.62;;;0.62;;
33347;SDS011;19707;51.158;17.124;2022-07-19T10:56:55;7.95;;;2.30;;
33347;SDS011;19707;51.158;17.124;2022-07-19T10:59:59;1.50;;;1.10;;
33347;SDS011;19707;51.158;17.124;2022-07-19T11:06:27;0.60;;;0.60;;
33347;SDS011;19707;51.158;17.124;2022-07-19T11:09:45;3.10;;;1.67;;
33347;SDS011;19707;51.158;17.124;2022-07-19T11:12:57;0.95;;;0.93;;
33347;SDS011;19707;51.158;17.124;2022-07-19T11:16:00;2.55;;;0.75;;
33347;SDS011;19707;51.158;17.124;2022-07-19T11:19:07;0.70;;;0.70;;
33347;SDS011;19707;51.158;17.124;2022-07-19T11:22:10;2.35;;;1.20;;
33347;SDS011;19707;51.158;17.124;2022-07-19T11:25:13;7.17;;;2.25;;
33347;SDS011;19707;51.158;17.124;2022-07-19T11:28:20;2.70;;;1.15;;
33347;SDS011;19707;51.158;17.124;2022-07-19T11:31:25;6.75;;;1.95;;
33347;SDS011;19707;51.158;17.124;2022-07-19T11:34:26;7.40;;;2.60;;
33347;SDS011;19707;51.158;17.124;2022-07-19T11:37:29;8.68;;;3.02;;
33347;SDS011;19707;51.158;17.124;2022-07-19T11:40:35;0.78;;;0.68;;
33347;SDS011;19707;51.158;17.124;2022-07-19T11:43:38;7.45;;;2.95;;
33347;SDS011;19707;51.158;17.124;2022-07-19T11:46:41;3.10;;;1.52;;
33347;SDS011;19707;51.158;17.124;2022-07-19T11:49:42;5.55;;;1.15;;
33347;SDS011;19707;51.158;17.124;2022-07-19T11:55:50;0.80;;;0.80;;
33347;SDS011;19707;51.158;17.124;2022-07-19T11:58:52;2.25;;;0.82;;
33347;SDS011;19707;51.158;17.124;2022-07-19T12:01:56;5.35;;;2.20;;
33347;SDS011;19707;51.158;17.124;2022-07-19T12:05:08;6.78;;;1.98;;
33347;SDS011;19707;51.158;17.124;2022-07-19T12:08:12;2.45;;;1.27;;
33347;SDS011;19707;51.158;17.124;2022-07-19T12:11:17;1.55;;;0.88;;
33347;SDS011;19707;51.158;17.124;2022-07-19T12:14:25;1.98;;;1.47;;
33347;SDS011;19707;51.158;17.124;2022-07-19T12:17:34;3.80;;;1.45;;
33347;SDS011;19707;51.158;17.124;2022-07-19T12:20:36;1.35;;;1.22;;
33347;SDS011;19707;51.158;17.124;2022-07-19T12:23:39;5.20;;;2.33;;
33347;SDS011;19707;51.158;17.124;2022-07-19T12:26:53;2.83;;;1.20;;
33347;SDS011;19707;51.158;17.124;2022-07-19T12:29:47;0.60;;;0.60;;
33347;SDS011;19707;51.158;17.124;2022-07-19T12:32:51;0.60;;;0.60;;
33347;SDS011;19707;51.158;17.124;2022-07-19T12:35:52;1.27;;;1.17;;
33347;SDS011;19707;51.158;17.124;2022-07-19T12:38:53;0.70;;;0.70;;
33347;SDS011;19707;51.158;17.124;2022-07-19T12:42:00;1.52;;;1.20;;
33347;SDS011;19707;51.158;17.124;2022-07-19T12:45:05;0.50;;;0.50;;
33347;SDS011;19707;51.158;17.124;2022-07-19T12:48:08;0.55;;;0.55;;
33347;SDS011;19707;51.158;17.124;2022-07-19T12:51:15;0.90;;;0.70;;
33347;SDS011;19707;51.158;17.124;2022-07-19T12:54:17;1.70;;;1.10;;
33347;SDS011;19707;51.158;17.124;2022-07-19T12:57:19;3.33;;;1.32;;
33347;SDS011;19707;51.158;17.124;2022-07-19T13:00:22;4.03;;;2.00;;
33347;SDS011;19707;51.158;17.124;2022-07-19T13:03:25;2.87;;;2.37;;
33347;SDS011;19707;51.158;17.124;2022-07-19T13:06:27;0.42;;;0.42;;
33347;SDS011;19707;51.158;17.124;2022-07-19T13:09:28;4.47;;;2.10;;
33347;SDS011;19707;51.158;17.124;2022-07-19T13:12:30;3.55;;;2.00;;
33347;SDS011;19707;51.158;17.124;2022-07-19T13:15:31;0.90;;;0.80;;
33347;SDS011;19707;51.158;17.124;2022-07-19T13:18:33;5.12;;;2.87;;
33347;SDS011;19707;51.158;17.124;2022-07-19T13:21:34;6.33;;;1.65;;
33347;SDS011;19707;51.158;17.124;2022-07-19T13:24:36;3.98;;;1.75;;
33347;SDS011;19707;51.158;17.124;2022-07-19T13:27:38;5.97;;;2.02;;
33347;SDS011;19707;51.158;17.124;2022-07-19T13:30:39;1.20;;;1.15;;
33347;SDS011;19707;51.158;17.124;2022-07-19T13:33:41;3.42;;;2.17;;
33347;SDS011;19707;51.158;17.124;2022-07-19T13:36:42;3.85;;;2.50;;
33347;SDS011;19707;51.158;17.124;2022-07-19T13:39:44;1.22;;;1.12;;
33347;SDS011;19707;51.158;17.124;2022-07-19T13:42:45;2.08;;;1.45;;
33347;SDS011;19707;51.158;17.124;2022-07-19T13:45:46;7.05;;;2.62;;
33347;SDS011;19707;51.158;17.124;2022-07-19T13:48:47;1.35;;;1.00;;
33347;SDS011;19707;51.158;17.124;2022-07-19T13:51:49;3.45;;;1.47;;
33347;SDS011;19707;51.158;17.124;2022-07-19T13:54:51;1.70;;;1.25;;
33347;SDS011;19707;51.158;17.124;2022-07-19T13:57:52;1.62;;;1.30;;
33347;SDS011;19707;51.158;17.124;2022-07-19T14:00:55;0.70;;;0.65;;
33347;SDS011;19707;51.158;17.124;2022-07-19T14:03:56;1.12;;;1.02;;
33347;SDS011;19707;51.158;17.124;2022-07-19T14:06:58;1.40;;;1.30;;
33347;SDS011;19707;51.158;17.124;2022-07-19T14:10:00;3.25;;;2.17;;
33347;SDS011;19707;51.158;17.124;2022-07-19T14:13:01;5.95;;;2.50;;
33347;SDS011;19707;51.158;17.124;2022-07-19T14:16:03;6.50;;;2.60;;
33347;SDS011;19707;51.158;17.124;2022-07-19T14:19:05;3.20;;;1.82;;
33347;SDS011;19707;51.158;17.124;2022-07-19T14:22:07;0.78;;;0.78;;
33347;SDS011;19707;51.158;17.124;2022-07-19T14:25:08;0.60;;;0.60;;
33347;SDS011;19707;51.158;17.124;2022-07-19T14:28:09;1.32;;;1.10;;
33347;SDS011;19707;51.158;17.124;2022-07-19T14:31:11;3.22;;;2.40;;
33347;SDS011;19707;51.158;17.124;2022-07-19T14:34:14;5.85;;;2.90;;
33347;SDS011;19707;51.158;17.124;2022-07-19T14:37:16;0.60;;;0.60;;
33347;SDS011;19707;51.158;17.124;2022-07-19T14:40:17;2.52;;;1.80;;
33347;SDS011;19707;51.158;17.124;2022-07-19T14:43:19;0.85;;;0.85;;
33347;SDS011;19707;51.158;17.124;2022-07-19T14:46:20;3.08;;;0.95;;
33347;SDS011;19707;51.158;17.124;2022-07-19T14:49:22;4.20;;;0.65;;
33347;SDS011;19707;51.158;17.124;2022-07-19T14:52:23;4.35;;;2.22;;
33347;SDS011;19707;51.158;17.124;2022-07-19T14:55:25;2.85;;;2.00;;
33347;SDS011;19707;51.158;17.124;2022-07-19T14:58:28;5.57;;;2.50;;
33347;SDS011;19707;51.158;17.124;2022-07-19T15:01:29;6.17;;;2.80;;
33347;SDS011;19707;51.158;17.124;2022-07-19T15:04:30;4.10;;;2.08;;
33347;SDS011;19707;51.158;17.124;2022-07-19T15:07:33;4.62;;;2.30;;
33347;SDS011;19707;51.158;17.124;2022-07-19T15:13:38;1.93;;;1.10;;
33347;SDS011;19707;51.158;17.124;2022-07-19T15:16:40;0.70;;;0.50;;
33347;SDS011;19707;51.158;17.124;2022-07-19T15:19:41;2.20;;;0.75;;
33347;SDS011;19707;51.158;17.124;2022-07-19T15:22:42;2.20;;;1.45;;
33347;SDS011;19707;51.158;17.124;2022-07-19T15:25:43;0.85;;;0.70;;
33347;SDS011;19707;51.158;17.124;2022-07-19T15:28:45;2.85;;;2.35;;
33347;SDS011;19707;51.158;17.124;2022-07-19T15:31:46;3.02;;;1.72;;
33347;SDS011;19707;51.158;17.124;2022-07-19T15:34:47;4.22;;;2.75;;
33347;SDS011;19707;51.158;17.124;2022-07-19T15:37:49;5.90;;;2.70;;
33347;SDS011;19707;51.158;17.124;2022-07-19T15:40:50;2.83;;;1.90;;
33347;SDS011;19707;51.158;17.124;2022-07-19T15:43:52;1.92;;;1.72;;
33347;SDS011;19707;51.158;17.124;2022-07-19T15:46:53;2.83;;;1.72;;
33347;SDS011;19707;51.158;17.124;2022-07-19T15:49:54;0.98;;;0.78;;
33347;SDS011;19707;51.158;17.124;2022-07-19T15:52:55;7.62;;;2.75;;
33347;SDS011;19707;51.158;17.124;2022-07-19T15:55:56;1.07;;;0.93;;
33347;SDS011;19707;51.158;17.124;2022-07-19T15:58:57;2.02;;;0.60;;
33347;SDS011;19707;51.158;17.124;2022-07-19T16:01:59;0.80;;;0.80;;
33347;SDS011;19707;51.158;17.124;2022-07-19T16:05:00;2.47;;;1.77;;
33347;SDS011;19707;51.158;17.124;2022-07-19T16:08:01;5.25;;;2.15;;
33347;SDS011;19707;51.158;17.124;2022-07-19T16:11:04;5.40;;;2.92;;
33347;SDS011;19707;51.158;17.124;2022-07-19T16:14:05;5.78;;;2.33;;
33347;SDS011;19707;51.158;17.124;2022-07-19T16:17:07;3.50;;;2.77;;
33347;SDS011;19707;51.158;17.124;2022-07-19T16:20:09;4.40;;;2.58;;
33347;SDS011;19707;51.158;17.124;2022-07-19T16:23:11;2.92;;;2.62;;
33347;SDS011;19707;51.158;17.124;2022-07-19T16:26:13;2.80;;;1.75;;
33347;SDS011;19707;51.158;17.124;2022-07-19T16:29:14;2.72;;;1.87;;
33347;SDS011;19707;51.158;17.124;2022-07-19T16:32:16;3.42;;;1.70;;
33347;SDS011;19707;51.158;17.124;2022-07-19T16:35:17;2.02;;;1.40;;
33347;SDS011;19707;51.158;17.124;2022-07-19T16:38:19;6.78;;;1.90;;
33347;SDS011;19707;51.158;17.124;2022-07-19T16:41:23;2.55;;;1.35;;
33347;SDS011;19707;51.158;17.124;2022-07-19T16:44:24;4.80;;;1.82;;
33347;SDS011;19707;51.158;17.124;2022-07-19T16:47:26;1.40;;;0.95;;
33347;SDS011;19707;51.158;17.124;2022-07-19T16:50:27;2.47;;;2.12;;
33347;SDS011;19707;51.158;17.124;2022-07-19T16:53:29;4.30;;;2.58;;
33347;SDS011;19707;51.158;17.124;2022-07-19T16:56:30;4.90;;;2.20;;
33347;SDS011;19707;51.158;17.124;2022-07-19T16:59:31;3.98;;;1.75;;
33347;SDS011;19707;51.158;17.124;2022-07-19T17:02:33;0.80;;;0.80;;
33347;SDS011;19707;51.158;17.124;2022-07-19T17:05:34;4.33;;;2.10;;
33347;SDS011;19707;51.158;17.124;2022-07-19T17:08:36;3.10;;;1.25;;
33347;SDS011;19707;51.158;17.124;2022-07-19T17:11:38;7.30;;;2.08;;
33347;SDS011;19707;51.158;17.124;2022-07-19T17:14:40;3.62;;;1.30;;
33347;SDS011;19707;51.158;17.124;2022-07-19T17:17:41;59.55;;;6.87;;
33347;SDS011;19707;51.158;17.124;2022-07-19T17:20:43;10.78;;;3.67;;
33347;SDS011;19707;51.158;17.124;2022-07-19T17:23:45;2.33;;;2.00;;
33347;SDS011;19707;51.158;17.124;2022-07-19T17:26:48;4.13;;;1.43;;
33347;SDS011;19707;51.158;17.124;2022-07-19T17:29:49;0.75;;;0.70;;
33347;SDS011;19707;51.158;17.124;2022-07-19T17:32:51;2.33;;;1.25;;
33347;SDS011;19707;51.158;17.124;2022-07-19T17:35:53;0.78;;;0.78;;
33347;SDS011;19707;51.158;17.124;2022-07-19T17:38:54;2.22;;;1.62;;
33347;SDS011;19707;51.158;17.124;2022-07-19T17:41:56;0.78;;;0.78;;
33347;SDS011;19707;51.158;17.124;2022-07-19T17:44:57;1.00;;;0.65;;
33347;SDS011;19707;51.158;17.124;2022-07-19T17:47:58;3.92;;;1.57;;
33347;SDS011;19707;51.158;17.124;2022-07-19T17:50:59;0.65;;;0.65;;
33347;SDS011;19707;51.158;17.124;2022-07-19T17:54:01;1.00;;;0.90;;
33347;SDS011;19707;51.158;17.124;2022-07-19T17:57:03;1.57;;;0.85;;
33347;SDS011;19707;51.158;17.124;2022-07-19T18:00:05;0.78;;;0.78;;
33347;SDS011;19707;51.158;17.124;2022-07-19T18:03:09;1.22;;;0.90;;
33347;SDS011;19707;51.158;17.124;2022-07-19T18:06:11;1.27;;;1.17;;
33347;SDS011;19707;51.158;17.124;2022-07-19T18:09:13;3.60;;;2.02;;
33347;SDS011;19707;51.158;17.124;2022-07-19T18:12:15;1.17;;;0.68;;
33347;SDS011;19707;51.158;17.124;2022-07-19T18:15:17;1.02;;;0.80;;
33347;SDS011;19707;51.158;17.124;2022-07-19T18:18:19;2.20;;;0.70;;
33347;SDS011;19707;51.158;17.124;2022-07-19T18:21:21;1.30;;;1.20;;
33347;SDS011;19707;51.158;17.124;2022-07-19T18:24:24;1.30;;;0.70;;
33347;SDS011;19707;51.158;17.124;2022-07-19T18:27:25;0.53;;;0.50;;
33347;SDS011;19707;51.158;17.124;2022-07-19T18:30:27;1.12;;;0.72;;